createdAt,value
2022-11-27T00:01:23.601Z,0.60
2022-11-27T00:03:51.000Z,0.60
2022-11-27T00:06:21.483Z,0.60
2022-11-27T00:08:49.664Z,0.60
2022-11-27T00:11:22.798Z,0.60
2022-11-27T00:13:50.968Z,0.60
2022-11-27T00:16:20.350Z,0.60
2022-11-27T00:18:48.101Z,0.60
2022-11-27T00:21:19.270Z,0.60
2022-11-27T00:23:46.555Z,0.50
2022-11-27T00:26:14.830Z,0.60
2022-11-27T00:28:42.056Z,0.60
2022-11-27T00:31:21.847Z,0.50
2022-11-27T00:33:49.183Z,0.50
2022-11-27T00:36:16.860Z,0.50
2022-11-27T00:38:44.099Z,0.50
2022-11-27T00:41:20.801Z,0.50
2022-11-27T00:43:48.599Z,0.50
2022-11-27T00:46:17.500Z,0.50
2022-11-27T00:48:45.850Z,0.50
2022-11-27T00:51:16.780Z,0.60
2022-11-27T00:53:44.243Z,0.50
2022-11-27T00:56:17.938Z,0.60
2022-11-27T00:58:45.899Z,0.60
2022-11-27T01:01:23.028Z,0.60
2022-11-27T01:03:50.545Z,0.60
2022-11-27T01:06:19.758Z,0.60
2022-11-27T01:08:47.561Z,0.60
2022-11-27T01:11:20.069Z,0.60
2022-11-27T01:13:48.078Z,0.60
2022-11-27T01:16:20.164Z,0.60
2022-11-27T01:18:49.191Z,0.60
2022-11-27T01:21:20.636Z,0.60
2022-11-27T01:23:49.452Z,0.60
2022-11-27T01:26:18.300Z,0.60
2022-11-27T01:28:46.195Z,0.60
2022-11-27T01:31:19.447Z,0.60
2022-11-27T01:33:47.664Z,0.60
2022-11-27T01:36:16.067Z,0.60
2022-11-27T01:38:43.546Z,0.60
2022-11-27T01:41:21.567Z,0.70
2022-11-27T01:43:51.733Z,0.70
2022-11-27T01:46:34.231Z,0.60
2022-11-27T01:49:10.502Z,0.70
2022-11-27T01:51:40.819Z,0.60
2022-11-27T01:54:09.955Z,0.70
2022-11-27T01:56:41.260Z,0.60
2022-11-27T01:59:08.659Z,0.60
2022-11-27T02:01:36.244Z,0.60
2022-11-27T02:04:04.125Z,0.60
2022-11-27T02:06:31.587Z,0.60
2022-11-27T02:08:58.810Z,0.60
2022-11-27T02:11:39.413Z,0.60
2022-11-27T02:14:40.038Z,0.70
2022-11-27T02:17:33.883Z,0.60
2022-11-27T02:20:21.865Z,0.60
2022-11-27T02:23:09.569Z,0.60
2022-11-27T02:25:55.282Z,0.60
2022-11-27T02:28:41.071Z,0.60
2022-11-27T02:31:18.939Z,0.60
2022-11-27T02:33:51.426Z,0.60
2022-11-27T02:36:25.271Z,0.60
2022-11-27T02:39:05.007Z,0.60
2022-11-27T02:41:40.242Z,0.60
2022-11-27T02:44:10.059Z,0.60
2022-11-27T02:46:39.075Z,0.60
2022-11-27T02:49:12.096Z,0.60
2022-11-27T02:51:52.714Z,0.60
2022-11-27T02:54:28.944Z,0.60
2022-11-27T02:56:59.450Z,0.70
2022-11-27T02:59:29.676Z,0.70
2022-11-27T03:02:01.207Z,0.70
2022-11-27T03:04:41.083Z,0.70
2022-11-27T03:07:16.650Z,0.70
2022-11-27T03:09:48.391Z,0.70
2022-11-27T03:12:17.837Z,0.70
2022-11-27T03:14:47.641Z,0.80
2022-11-27T03:17:29.874Z,0.70
2022-11-27T03:20:19.622Z,0.80
2022-11-27T03:22:46.861Z,0.80
2022-11-27T03:25:16.197Z,0.80
2022-11-27T03:28:06.077Z,0.80
2022-11-27T03:30:33.698Z,0.80
2022-11-27T03:33:02.169Z,0.80
2022-11-27T03:35:29.921Z,0.80
2022-11-27T03:37:57.342Z,0.80
2022-11-27T03:40:45.189Z,0.80
2022-11-27T03:43:23.713Z,0.80
2022-11-27T03:46:01.168Z,0.90
2022-11-27T03:48:35.527Z,0.80
2022-11-27T03:51:26.776Z,0.80
2022-11-27T03:54:31.399Z,0.90
2022-11-27T03:57:09.833Z,0.90
2022-11-27T03:59:42.387Z,0.90
2022-11-27T04:02:17.987Z,0.90
2022-11-27T04:04:45.824Z,0.90
2022-11-27T04:07:17.667Z,0.90
2022-11-27T04:09:45.019Z,0.90
2022-11-27T04:12:12.474Z,0.90
2022-11-27T04:14:39.896Z,0.90
2022-11-27T04:17:08.535Z,0.90
2022-11-27T04:19:35.780Z,0.90
2022-11-27T04:22:03.395Z,0.90
2022-11-27T04:24:30.592Z,0.90
2022-11-27T04:26:58.090Z,0.90
2022-11-27T04:29:25.243Z,1.00
2022-11-27T04:31:52.794Z,1.00
2022-11-27T04:34:20.009Z,0.90
2022-11-27T04:36:47.504Z,1.00
2022-11-27T04:39:14.731Z,1.00
2022-11-27T04:41:42.518Z,1.00
2022-11-27T04:44:11.229Z,1.00
2022-11-27T04:46:39.056Z,1.00
2022-11-27T04:49:06.699Z,1.10
2022-11-27T04:51:34.397Z,1.10
2022-11-27T04:54:01.656Z,1.10
2022-11-27T04:56:29.187Z,1.10
2022-11-27T04:58:56.375Z,1.20
2022-11-27T05:01:23.949Z,1.20
2022-11-27T05:03:51.179Z,1.20
2022-11-27T05:06:18.760Z,1.30
2022-11-27T05:08:45.915Z,1.30
2022-11-27T05:11:15.428Z,1.30
2022-11-27T05:13:43.466Z,1.30
2022-11-27T05:16:11.297Z,1.30
2022-11-27T05:18:38.555Z,1.30
2022-11-27T05:21:08.031Z,1.30
2022-11-27T05:23:35.701Z,1.30
2022-11-27T05:26:03.585Z,1.40
2022-11-27T05:28:30.877Z,1.40
2022-11-27T05:30:58.389Z,1.40
2022-11-27T05:33:25.727Z,1.40
2022-11-27T05:35:53.256Z,1.40
2022-11-27T05:38:20.461Z,1.40
2022-11-27T05:40:48.545Z,1.40
2022-11-27T05:43:15.699Z,1.40
2022-11-27T05:45:43.258Z,1.40
2022-11-27T05:48:10.414Z,1.40
2022-11-27T05:50:37.839Z,1.40
2022-11-27T05:53:05.347Z,1.40
2022-11-27T05:55:32.881Z,1.40
2022-11-27T05:58:00.038Z,1.50
2022-11-27T06:00:27.716Z,1.50
2022-11-27T06:02:55.486Z,1.50
2022-11-27T06:05:23.050Z,1.50
2022-11-27T06:07:50.249Z,1.50
2022-11-27T06:10:17.836Z,1.50
2022-11-27T06:12:44.984Z,1.50
2022-11-27T06:15:12.531Z,1.50
2022-11-27T06:17:39.775Z,1.50
2022-11-27T06:20:07.970Z,1.50
2022-11-27T06:22:35.177Z,1.50
2022-11-27T06:25:03.014Z,1.50
2022-11-27T06:27:36.276Z,1.50
2022-11-27T06:30:06.088Z,1.50
2022-11-27T06:32:33.287Z,1.50
2022-11-27T06:35:01.010Z,1.60
2022-11-27T06:37:28.199Z,1.60
2022-11-27T06:39:55.641Z,1.60
2022-11-27T06:42:22.854Z,1.60
2022-11-27T06:44:50.441Z,1.60
2022-11-27T06:47:17.600Z,1.60
2022-11-27T06:49:44.995Z,1.60
2022-11-27T06:52:12.197Z,1.70
2022-11-27T06:54:39.949Z,1.60
2022-11-27T06:57:07.330Z,1.70
2022-11-27T06:59:34.854Z,1.60
2022-11-27T07:02:02.149Z,1.60
2022-11-27T07:04:29.812Z,1.70
2022-11-27T07:06:56.968Z,1.70
2022-11-27T07:09:24.725Z,1.70
2022-11-27T07:11:52.045Z,1.70
2022-11-27T07:14:19.565Z,1.70
2022-11-27T07:16:46.790Z,1.70
2022-11-27T07:19:14.870Z,1.70
2022-11-27T07:21:42.154Z,1.70
2022-11-27T07:24:09.639Z,1.70
2022-11-27T07:26:36.932Z,1.70
2022-11-27T07:29:04.715Z,1.70
2022-11-27T07:31:31.980Z,1.80
2022-11-27T07:33:59.646Z,1.70
2022-11-27T07:36:29.610Z,1.80
2022-11-27T07:38:58.238Z,1.80
2022-11-27T07:41:32.183Z,1.80
2022-11-27T07:44:01.516Z,1.80
2022-11-27T07:46:30.279Z,1.80
2022-11-27T07:48:58.223Z,1.80
2022-11-27T07:51:25.561Z,1.80
2022-11-27T07:53:53.517Z,1.90
2022-11-27T07:56:21.148Z,1.90
2022-11-27T07:58:49.023Z,1.90
2022-11-27T08:01:18.948Z,1.90
2022-11-27T08:03:46.598Z,1.90
2022-11-27T08:06:19.424Z,1.90
2022-11-27T08:08:47.798Z,1.90
2022-11-27T08:11:22.655Z,1.90
2022-11-27T08:13:51.059Z,1.90
2022-11-27T08:16:18.692Z,1.90
2022-11-27T08:18:46.262Z,1.90
2022-11-27T08:21:13.544Z,1.90
2022-11-27T08:23:41.429Z,1.90
2022-11-27T08:26:10.309Z,1.90
2022-11-27T08:28:39.107Z,1.90
2022-11-27T08:31:09.043Z,1.90
2022-11-27T08:33:36.966Z,2.00
2022-11-27T08:36:06.029Z,2.00
2022-11-27T08:38:34.873Z,2.00
2022-11-27T08:41:04.032Z,2.00
2022-11-27T08:43:32.171Z,2.10
2022-11-27T08:45:59.728Z,2.10
2022-11-27T08:48:28.659Z,2.10
2022-11-27T08:50:56.118Z,2.00
2022-11-27T08:53:23.635Z,2.00
2022-11-27T08:55:50.839Z,2.10
2022-11-27T08:58:18.322Z,2.10
2022-11-27T09:00:45.509Z,2.10
2022-11-27T09:03:13.099Z,2.00
2022-11-27T09:05:44.815Z,2.10
2022-11-27T09:08:16.601Z,2.00
2022-11-27T09:10:43.915Z,2.10
2022-11-27T09:13:11.469Z,2.10
2022-11-27T09:15:38.821Z,2.10
2022-11-27T09:18:06.329Z,2.20
2022-11-27T09:20:33.553Z,2.20
2022-11-27T09:23:02.594Z,2.20
2022-11-27T09:25:29.830Z,2.20
2022-11-27T09:27:57.384Z,2.20
2022-11-27T09:30:24.561Z,2.20
2022-11-27T09:32:52.510Z,2.30
2022-11-27T09:35:20.048Z,2.30
2022-11-27T09:37:47.644Z,2.30
2022-11-27T09:40:17.612Z,2.30
2022-11-27T09:42:58.856Z,2.40
2022-11-27T09:45:27.228Z,2.30
2022-11-27T09:47:59.470Z,2.30
2022-11-27T09:50:32.021Z,2.30
2022-11-27T09:53:41.147Z,2.30
2022-11-27T09:56:13.505Z,2.40
2022-11-27T09:58:43.306Z,2.40
2022-11-27T10:01:12.101Z,2.40
2022-11-27T10:03:42.417Z,2.40
2022-11-27T10:06:28.580Z,2.40
2022-11-27T10:09:17.319Z,2.50
2022-11-27T10:11:53.297Z,2.50
2022-11-27T10:14:35.812Z,2.50
2022-11-27T10:17:30.574Z,2.50
2022-11-27T10:20:29.082Z,2.50
2022-11-27T10:22:58.950Z,2.50
2022-11-27T10:25:49.097Z,2.60
2022-11-27T10:28:21.791Z,2.60
2022-11-27T10:31:10.686Z,2.60
2022-11-27T10:33:59.332Z,2.60
2022-11-27T10:36:31.920Z,2.60
2022-11-27T10:39:01.522Z,2.60
2022-11-27T10:41:48.654Z,2.60
2022-11-27T10:44:32.919Z,2.70
2022-11-27T10:47:08.201Z,2.80
2022-11-27T10:49:39.337Z,2.80
2022-11-27T10:52:11.103Z,2.80
2022-11-27T10:54:39.946Z,2.80
2022-11-27T10:57:13.584Z,2.80
2022-11-27T10:59:50.698Z,2.80
2022-11-27T11:02:28.524Z,2.80
2022-11-27T11:05:24.106Z,2.80
2022-11-27T11:07:52.855Z,2.80
2022-11-27T11:10:49.476Z,2.80
2022-11-27T11:13:46.789Z,2.90
2022-11-27T11:16:20.553Z,2.90
2022-11-27T11:18:53.271Z,2.90
2022-11-27T11:21:29.945Z,2.90
2022-11-27T11:23:59.221Z,2.90
2022-11-27T11:26:31.285Z,2.90
2022-11-27T11:29:01.883Z,2.80
2022-11-27T11:31:33.375Z,2.80
2022-11-27T11:34:25.864Z,2.80
2022-11-27T11:37:20.616Z,2.80
2022-11-27T11:39:58.101Z,2.80
2022-11-27T11:42:31.388Z,2.80
2022-11-27T11:45:06.884Z,2.80
2022-11-27T11:47:34.935Z,2.90
2022-11-27T11:50:02.871Z,2.80
2022-11-27T11:52:42.205Z,2.90
2022-11-27T11:55:35.898Z,2.90
2022-11-27T11:58:18.269Z,2.90
2022-11-27T12:01:11.733Z,2.90
2022-11-27T12:03:45.818Z,2.80
2022-11-27T12:06:32.594Z,2.90
2022-11-27T12:09:08.794Z,2.80
2022-11-27T12:12:03.059Z,2.80
2022-11-27T12:14:36.303Z,2.90
2022-11-27T12:17:19.355Z,2.80
2022-11-27T12:20:06.809Z,2.90
2022-11-27T12:22:43.545Z,2.90
2022-11-27T12:25:28.163Z,2.90
2022-11-27T12:28:23.516Z,3.00
2022-11-27T12:31:05.281Z,2.90
2022-11-27T12:33:54.106Z,2.90
2022-11-27T12:36:33.285Z,2.90
2022-11-27T12:39:33.012Z,3.00
2022-11-27T12:42:12.490Z,2.90
2022-11-27T12:45:12.403Z,3.00
2022-11-27T12:47:43.674Z,3.00
2022-11-27T12:50:27.330Z,3.00
2022-11-27T12:53:16.008Z,3.10
2022-11-27T12:56:12.496Z,3.10
2022-11-27T12:58:44.587Z,3.10
2022-11-27T13:01:27.623Z,3.20
2022-11-27T13:04:07.249Z,3.20
2022-11-27T13:06:47.331Z,3.30
2022-11-27T13:09:20.277Z,3.20
2022-11-27T13:11:48.143Z,3.30
2022-11-27T13:14:26.901Z,3.30
2022-11-27T13:17:03.828Z,3.30
2022-11-27T13:19:36.008Z,3.40
2022-11-27T13:22:06.181Z,3.40
2022-11-27T13:24:34.034Z,3.40
2022-11-27T13:27:23.844Z,3.40
2022-11-27T13:30:18.703Z,3.50
2022-11-27T13:32:59.769Z,3.50
2022-11-27T13:35:31.729Z,3.50
2022-11-27T13:38:10.066Z,3.40
2022-11-27T13:40:44.205Z,3.50
2022-11-27T13:43:29.050Z,3.40
2022-11-27T13:46:08.076Z,3.40
2022-11-27T13:48:47.550Z,3.40
2022-11-27T13:51:27.198Z,3.40
2022-11-27T13:54:18.180Z,3.40
2022-11-27T13:56:46.445Z,3.40
2022-11-27T13:59:25.203Z,3.30
2022-11-27T14:02:01.371Z,3.30
2022-11-27T14:04:31.399Z,3.30
2022-11-27T14:07:11.270Z,3.30
2022-11-27T14:09:49.152Z,3.30
2022-11-27T14:12:26.964Z,3.30
2022-11-27T14:14:59.587Z,3.30
2022-11-27T14:17:50.777Z,3.30
2022-11-27T14:20:18.412Z,3.30
2022-11-27T14:23:11.196Z,3.30
2022-11-27T14:25:39.846Z,3.30
2022-11-27T14:28:21.617Z,3.30
2022-11-27T14:30:51.893Z,3.30
2022-11-27T14:33:24.936Z,3.30
2022-11-27T14:35:58.484Z,3.30
2022-11-27T14:38:27.395Z,3.30
2022-11-27T14:41:08.776Z,3.30
2022-11-27T14:43:36.025Z,3.20
2022-11-27T14:46:05.376Z,3.30
2022-11-27T14:48:57.621Z,3.30
2022-11-27T14:51:28.205Z,3.30
2022-11-27T14:54:12.955Z,3.20
2022-11-27T14:56:42.668Z,3.20
2022-11-27T14:59:17.424Z,3.20
2022-11-27T15:01:46.750Z,3.20
2022-11-27T15:04:27.470Z,3.20
2022-11-27T15:06:56.141Z,3.20
2022-11-27T15:09:32.437Z,3.20
2022-11-27T15:12:18.508Z,3.30
2022-11-27T15:14:51.702Z,3.30
2022-11-27T15:17:26.222Z,3.20
2022-11-27T15:19:55.055Z,3.30
2022-11-27T15:22:23.395Z,3.30
2022-11-27T15:25:00.582Z,3.30
2022-11-27T15:27:31.594Z,3.30
2022-11-27T15:30:14.355Z,3.30
2022-11-27T15:32:53.734Z,3.30
2022-11-27T15:35:30.362Z,3.30
2022-11-27T15:38:04.346Z,3.30
2022-11-27T15:40:36.229Z,3.30
2022-11-27T15:43:16.342Z,3.30
2022-11-27T15:45:44.924Z,3.30
2022-11-27T15:48:16.086Z,3.30
2022-11-27T15:50:48.385Z,3.30
2022-11-27T15:53:19.270Z,3.30
2022-11-27T15:55:46.485Z,3.30
2022-11-27T15:58:14.035Z,3.30
2022-11-27T16:00:41.310Z,3.30
2022-11-27T16:03:08.862Z,3.30
2022-11-27T16:05:36.743Z,3.30
2022-11-27T16:08:05.448Z,3.30
2022-11-27T16:10:32.747Z,3.30
2022-11-27T16:13:00.233Z,3.30
2022-11-27T16:15:31.565Z,3.30
2022-11-27T16:18:01.306Z,3.30
2022-11-27T16:20:28.999Z,3.30
2022-11-27T16:22:56.522Z,3.20
2022-11-27T16:25:25.254Z,3.20
2022-11-27T16:27:56.670Z,3.20
2022-11-27T16:30:26.786Z,3.20
2022-11-27T16:32:54.445Z,3.10
2022-11-27T16:35:24.466Z,3.10
2022-11-27T16:37:52.656Z,3.10
2022-11-27T16:40:20.517Z,3.10
2022-11-27T16:42:48.655Z,3.10
2022-11-27T16:45:16.034Z,3.20
2022-11-27T16:47:43.837Z,3.20
2022-11-27T16:50:12.037Z,3.20
2022-11-27T16:52:39.796Z,3.20
2022-11-27T16:55:07.933Z,3.20
2022-11-27T16:57:35.612Z,3.20
2022-11-27T17:00:03.194Z,3.20
2022-11-27T17:02:31.752Z,3.20
2022-11-27T17:04:59.180Z,3.20
2022-11-27T17:07:26.642Z,3.20
2022-11-27T17:09:53.896Z,3.20
2022-11-27T17:12:21.369Z,3.20
2022-11-27T17:14:48.695Z,3.20
2022-11-27T17:17:16.463Z,3.20
2022-11-27T17:19:43.875Z,3.30
2022-11-27T17:22:11.706Z,3.30
2022-11-27T17:24:38.972Z,3.30
2022-11-27T17:27:07.770Z,3.30
2022-11-27T17:29:36.520Z,3.30
2022-11-27T17:32:05.030Z,3.30
2022-11-27T17:34:33.126Z,3.30
2022-11-27T17:37:00.636Z,3.30
2022-11-27T17:39:27.866Z,3.30
2022-11-27T17:41:55.392Z,3.30
2022-11-27T17:44:22.854Z,3.30
2022-11-27T17:46:50.819Z,3.30
2022-11-27T17:49:19.727Z,3.30
2022-11-27T17:51:49.523Z,3.30
2022-11-27T17:54:17.699Z,3.30
2022-11-27T17:56:51.204Z,3.30
2022-11-27T17:59:19.531Z,3.30
2022-11-27T18:01:48.629Z,3.30
2022-11-27T18:04:16.347Z,3.30
2022-11-27T18:06:43.984Z,3.30
2022-11-27T18:09:11.735Z,3.30
2022-11-27T18:11:40.336Z,3.30
2022-11-27T18:14:11.568Z,3.30
2022-11-27T18:16:41.729Z,3.30
2022-11-27T18:19:11.014Z,3.30
2022-11-27T18:21:39.101Z,3.20
2022-11-27T18:24:24.327Z,3.30
2022-11-27T18:27:09.882Z,3.20
2022-11-27T18:29:40.788Z,3.20
2022-11-27T18:32:09.480Z,3.20
2022-11-27T18:34:36.885Z,3.30
2022-11-27T18:37:05.077Z,3.20
2022-11-27T18:39:33.436Z,3.20
2022-11-27T18:42:01.062Z,3.20
2022-11-27T18:44:28.331Z,3.20
2022-11-27T18:46:56.280Z,3.20
2022-11-27T18:49:24.057Z,3.30
2022-11-27T18:51:53.940Z,3.30
2022-11-27T18:54:24.635Z,3.30
2022-11-27T18:56:52.136Z,3.30
2022-11-27T18:59:19.549Z,3.30
2022-11-27T19:01:47.202Z,3.30
2022-11-27T19:04:15.202Z,3.30
2022-11-27T19:06:43.937Z,3.30
2022-11-27T19:09:12.806Z,3.30
2022-11-27T19:11:41.336Z,3.30
2022-11-27T19:14:09.120Z,3.30
2022-11-27T19:16:42.147Z,3.40
2022-11-27T19:19:49.271Z,3.30
2022-11-27T19:22:00.786Z,3.30
2022-11-27T19:24:28.078Z,3.30
2022-11-27T19:26:57.783Z,3.40
2022-11-27T19:29:25.045Z,3.40
2022-11-27T19:31:55.225Z,3.40
2022-11-27T19:34:22.866Z,3.30
2022-11-27T19:36:50.536Z,3.40
2022-11-27T19:39:18.629Z,3.40
2022-11-27T19:41:48.811Z,3.30
2022-11-27T19:44:17.546Z,3.30
2022-11-27T19:46:46.669Z,3.30
2022-11-27T19:49:18.014Z,3.30
2022-11-27T19:51:46.775Z,3.30
2022-11-27T19:54:16.348Z,3.40
2022-11-27T19:56:44.355Z,3.40
2022-11-27T19:59:13.292Z,3.40
2022-11-27T20:01:42.462Z,3.40
2022-11-27T20:04:15.109Z,3.40
2022-11-27T20:06:44.768Z,3.40
2022-11-27T20:09:14.062Z,3.40
2022-11-27T20:11:41.842Z,3.40
2022-11-27T20:14:09.368Z,3.40
2022-11-27T20:16:37.004Z,3.40
2022-11-27T20:19:06.114Z,3.40
2022-11-27T20:21:40.187Z,3.40
2022-11-27T20:24:07.548Z,3.40
2022-11-27T20:26:41.255Z,3.40
2022-11-27T20:29:10.693Z,3.40
2022-11-27T20:31:39.434Z,3.40
2022-11-27T20:34:08.458Z,3.50
2022-11-27T20:36:39.294Z,3.40
2022-11-27T20:39:06.724Z,3.50
2022-11-27T20:41:34.222Z,3.40
2022-11-27T20:44:02.386Z,3.40
2022-11-27T20:46:32.569Z,3.40
2022-11-27T20:49:00.253Z,3.40
2022-11-27T20:51:33.799Z,3.30
2022-11-27T20:54:09.354Z,3.30
2022-11-27T20:56:37.106Z,3.30
2022-11-27T20:59:06.942Z,3.30
2022-11-27T21:01:36.255Z,3.30
2022-11-27T21:04:09.589Z,3.30
2022-11-27T21:06:43.486Z,3.30
2022-11-27T21:09:13.971Z,3.30
2022-11-27T21:11:42.828Z,3.30
2022-11-27T21:14:12.586Z,3.30
2022-11-27T21:16:43.917Z,3.30
2022-11-27T21:19:18.788Z,3.30
2022-11-27T21:21:46.934Z,3.30
2022-11-27T21:24:14.733Z,3.30
2022-11-27T21:26:42.571Z,3.30
2022-11-27T21:29:12.397Z,3.30
2022-11-27T21:31:46.118Z,3.30
2022-11-27T21:34:14.881Z,3.30
2022-11-27T21:36:42.647Z,3.30
2022-11-27T21:39:12.857Z,3.30
2022-11-27T21:41:41.612Z,3.30
2022-11-27T21:44:09.587Z,3.30
2022-11-27T21:46:37.786Z,3.30
2022-11-27T21:49:06.469Z,3.30
2022-11-27T21:51:33.997Z,3.30
2022-11-27T21:54:10.222Z,3.30
2022-11-27T21:56:40.193Z,3.30
2022-11-27T21:59:10.658Z,3.30
2022-11-27T22:01:38.759Z,3.20
2022-11-27T22:04:06.315Z,3.30
2022-11-27T22:06:41.561Z,3.20
2022-11-27T22:09:14.944Z,3.30
2022-11-27T22:11:43.362Z,3.30
2022-11-27T22:14:10.641Z,3.30
2022-11-27T22:16:44.808Z,3.30
2022-11-27T22:19:14.343Z,3.30
2022-11-27T22:21:42.542Z,3.30
2022-11-27T22:24:15.012Z,3.30
2022-11-27T22:26:46.947Z,3.30
2022-11-27T22:29:14.213Z,3.30
2022-11-27T22:31:42.159Z,3.30
2022-11-27T22:34:09.315Z,3.30
2022-11-27T22:36:36.879Z,3.30
2022-11-27T22:39:07.256Z,3.30
2022-11-27T22:41:37.097Z,3.30
2022-11-27T22:44:09.600Z,3.40
2022-11-27T22:46:40.808Z,3.40
2022-11-27T22:49:10.588Z,3.30
2022-11-27T22:51:38.829Z,3.40
2022-11-27T22:54:07.668Z,3.40
2022-11-27T22:56:36.227Z,3.40
2022-11-27T22:59:34.570Z,3.40
2022-11-27T23:01:54.605Z,3.40
2022-11-27T23:04:21.915Z,3.40
2022-11-27T23:06:49.509Z,3.50
2022-11-27T23:09:18.224Z,3.50
2022-11-27T23:11:46.652Z,3.50
2022-11-27T23:14:14.241Z,3.50
2022-11-27T23:16:42.233Z,3.50
2022-11-27T23:19:10.149Z,3.50
2022-11-27T23:21:38.921Z,3.50
2022-11-27T23:24:08.649Z,3.50
2022-11-27T23:26:36.384Z,3.50
2022-11-27T23:29:04.672Z,3.50
2022-11-27T23:31:35.257Z,3.50
2022-11-27T23:34:05.747Z,3.50
2022-11-27T23:36:33.993Z,3.50
2022-11-27T23:39:03.058Z,3.50
2022-11-27T23:41:31.080Z,3.50
2022-11-27T23:43:58.692Z,3.50
2022-11-27T23:46:29.294Z,3.50
2022-11-27T23:48:59.511Z,3.50
2022-11-27T23:51:30.154Z,3.40
2022-11-27T23:53:58.113Z,3.50
2022-11-27T23:56:28.461Z,3.50
2022-11-27T23:58:56.394Z,3.50
